Enco — CA3222 — position and weather

sailwx.info

Track history (hours):
 
Tides and Currents Weather Stations Pressure Air Temp Water Temp Dewpoint Dewpoint Depression Visibility Wind Speed Wind Dir Waves Ship Positions

Enco

Last reported at 2018-Jun-24 18:27 UTC. Time now 2018-Jun-24 18:54 UTC.
Position S 32°45' W 071°30'.

Length 32 m; draft 5.2 m.

Type: Tug. MMSI: 725000785.

Date/timePositionNaut miles runAvg speedWind from/ knotsBaromVisibWave heightAir tempDewpointWater temp
2018-Jun-24 18:27S 32°45' W 071°30'0 0.0
2018-Jun-24 17:53S 32°46' W 071°30'0 0.0
2018-Jun-24 17:30S 32°46' W 071°30'0 0.0
2018-Jun-24 16:57S 32°46' W 071°30'0 0.0
2018-Jun-24 16:30S 32°46' W 071°30'0 0.1
2018-Jun-24 16:00S 32°45' W 071°30'0 0.0
2018-Jun-24 15:30S 32°45' W 071°30'0 0.0
2018-Jun-24 14:36S 32°45' W 071°30'0 0.0
2018-Jun-24 14:11S 32°45' W 071°30'0 0.0
2018-Jun-24 13:46S 32°45' W 071°30'0 0.1
2018-Jun-24 13:28S 32°46' W 071°30'0 0.0
2018-Jun-24 12:59S 32°45' W 071°30'0 0.1
2018-Jun-24 12:29S 32°46' W 071°30'0 0.0
2018-Jun-24 11:58S 32°46' W 071°30'0 0.0
2018-Jun-24 11:14S 32°46' W 071°30'0 0.0
2018-Jun-24 10:48S 32°46' W 071°30'0 0.0
2018-Jun-24 10:02S 32°46' W 071°30'0 0.0
2018-Jun-24 09:45S 32°46' W 071°30'0 0.0
2018-Jun-23 21:28S 32°45' W 071°30'5 6.5
2018-Jun-23 20:42S 32°50' W 071°34'210.9
2018-Jun-23 20:30S 32°52' W 071°34'510.9
2018-Jun-23 20:00S 32°57' W 071°35'  
2018-Jun-21 12:11S 33°02' W 071°37'0 0.0
2018-Jun-21 12:00S 33°02' W 071°37'0 0.0
2018-Jun-21 11:30S 33°02' W 071°37'5 0.3
2018-Jun-20 20:52S 32°58' W 071°35'3 9.8
2018-Jun-20 20:30S 32°54' W 071°35'5 9.5
2018-Jun-20 19:59S 32°49' W 071°34'4 5.8
2018-Jun-20 19:20S 32°46' W 071°31'0 0.0
2018-Jun-20 18:58S 32°46' W 071°31'0 0.0
2018-Jun-20 18:28S 32°47' W 071°31'0 0.0
2018-Jun-20 18:00S 32°46' W 071°31'0 0.0
2018-Jun-20 17:30S 32°46' W 071°31'0 0.0
2018-Jun-20 17:00S 32°46' W 071°31'0 0.0
2018-Jun-20 16:30S 32°46' W 071°31'0 0.0
2018-Jun-20 16:00S 32°46' W 071°31'0 0.0
2018-Jun-20 15:30S 32°46' W 071°31'0 0.0
2018-Jun-20 15:00S 32°46' W 071°31'0 0.0
2018-Jun-20 14:30S 32°46' W 071°31'0 0.0
2018-Jun-20 13:26S 32°46' W 071°31'0 0.0
2018-Jun-20 12:25S 32°46' W 071°31'0 0.0
2018-Jun-20 06:34S 32°47' W 071°31'0 0.1
2018-Jun-20 06:29S 32°46' W 071°31'0 0.0
2018-Jun-20 06:00S 32°46' W 071°31'0 0.0
2018-Jun-20 04:35S 32°47' W 071°31'0 0.0
2018-Jun-20 03:22S 32°46' W 071°31'0 0.0
2018-Jun-20 02:58S 32°46' W 071°31'0 0.0
2018-Jun-20 02:30S 32°46' W 071°31'0 0.0
2018-Jun-20 01:50S 32°46' W 071°31'0 0.0
2018-Jun-20 01:30S 32°46' W 071°31'0 0.0
2018-Jun-20 01:00S 32°46' W 071°31'0 0.0
2018-Jun-20 00:29S 32°46' W 071°31'0 0.0
2018-Jun-20 00:00S 32°46' W 071°31'0 0.0
2018-Jun-19 23:29S 32°46' W 071°31'0 0.0
2018-Jun-19 23:00S 32°46' W 071°31'0 0.0
2018-Jun-19 21:44S 32°46' W 071°31'0 0.0
2018-Jun-19 20:36S 32°46' W 071°31'0 0.1
2018-Jun-19 20:30S 32°46' W 071°31'0 0.0
2018-Jun-19 19:58S 32°46' W 071°31'0 0.0
2018-Jun-19 19:28S 32°46' W 071°31'0 0.0
2018-Jun-19 19:00S 32°46' W 071°31'0 0.0
2018-Jun-19 16:36S 32°46' W 071°31'0 0.0
2018-Jun-19 11:19S 32°46' W 071°31'2 0.0
2018-Jun-17 19:14S 32°46' W 071°30'0 0.0
2018-Jun-17 18:44S 32°46' W 071°30'0 0.0
2018-Jun-17 18:20S 32°46' W 071°30'0 0.1
2018-Jun-17 17:55S 32°46' W 071°30'0 0.1
2018-Jun-17 17:28S 32°46' W 071°30'0 0.2
2018-Jun-17 16:28S 32°46' W 071°30'1 0.3
2018-Jun-17 12:14S 32°47' W 071°31'0 0.0
2018-Jun-17 11:56S 32°47' W 071°31'0 0.0
2018-Jun-16 20:24S 32°46' W 071°31'0 0.0
2018-Jun-16 19:48S 32°46' W 071°31'0 0.0
2018-Jun-16 19:24S 32°46' W 071°31'0 0.0
2018-Jun-16 19:00S 32°46' W 071°31'0 0.0
2018-Jun-16 18:15S 32°46' W 071°31'0 0.0
2018-Jun-16 17:45S 32°46' W 071°31'0 0.0
2018-Jun-16 17:30S 32°46' W 071°31'0 0.0
2018-Jun-16 16:54S 32°46' W 071°31'0 0.0
2018-Jun-16 16:06S 32°46' W 071°31'0 0.0
2018-Jun-16 15:36S 32°46' W 071°31'0 0.1
2018-Jun-16 15:28S 32°46' W 071°31'3 5.5
2018-Jun-16 14:53S 32°49' W 071°34'4 9.6
2018-Jun-16 14:31S 32°52' W 071°35'5 9.5
2018-Jun-16 14:01S 32°57' W 071°36'5 9.7
2018-Jun-16 13:29S 33°02' W 071°37'  
Track history (hours):
 
Tides and Currents Weather Stations Pressure Air Temp Water Temp Dewpoint Dewpoint Depression Visibility Wind Speed Wind Dir Waves Ship Positions

Enco

Last reported at 2018-Jun-24 18:27 UTC. Time now 2018-Jun-24 18:54 UTC.
Position S 32°45' W 071°30'.

Length 32 m; draft 5.2 m.

Type: Tug. MMSI: 725000785.

Date/timePositionNaut miles runAvg speedWind from/ knotsBaromVisibWave heightAir tempDewpointWater temp
2018-Jun-24 18:27S 32°45' W 071°30'0 0.0
2018-Jun-24 17:53S 32°46' W 071°30'0 0.0
2018-Jun-24 17:30S 32°46' W 071°30'0 0.0
2018-Jun-24 16:57S 32°46' W 071°30'0 0.0
2018-Jun-24 16:30S 32°46' W 071°30'0 0.1
2018-Jun-24 16:00S 32°45' W 071°30'0 0.0
2018-Jun-24 15:30S 32°45' W 071°30'0 0.0
2018-Jun-24 14:36S 32°45' W 071°30'0 0.0
2018-Jun-24 14:11S 32°45' W 071°30'0 0.0
2018-Jun-24 13:46S 32°45' W 071°30'0 0.1
2018-Jun-24 13:28S 32°46' W 071°30'0 0.0
2018-Jun-24 12:59S 32°45' W 071°30'0 0.1
2018-Jun-24 12:29S 32°46' W 071°30'0 0.0
2018-Jun-24 11:58S 32°46' W 071°30'0 0.0
2018-Jun-24 11:14S 32°46' W 071°30'0 0.0
2018-Jun-24 10:48S 32°46' W 071°30'0 0.0
2018-Jun-24 10:02S 32°46' W 071°30'0 0.0
2018-Jun-24 09:45S 32°46' W 071°30'0 0.0
2018-Jun-23 21:28S 32°45' W 071°30'5 6.5
2018-Jun-23 20:42S 32°50' W 071°34'210.9
2018-Jun-23 20:30S 32°52' W 071°34'510.9
2018-Jun-23 20:00S 32°57' W 071°35'  
2018-Jun-21 12:11S 33°02' W 071°37'0 0.0
2018-Jun-21 12:00S 33°02' W 071°37'0 0.0
2018-Jun-21 11:30S 33°02' W 071°37'5 0.3
2018-Jun-20 20:52S 32°58' W 071°35'3 9.8
2018-Jun-20 20:30S 32°54' W 071°35'5 9.5
2018-Jun-20 19:59S 32°49' W 071°34'4 5.8
2018-Jun-20 19:20S 32°46' W 071°31'0 0.0
2018-Jun-20 18:58S 32°46' W 071°31'0 0.0
2018-Jun-20 18:28S 32°47' W 071°31'0 0.0
2018-Jun-20 18:00S 32°46' W 071°31'0 0.0
2018-Jun-20 17:30S 32°46' W 071°31'0 0.0
2018-Jun-20 17:00S 32°46' W 071°31'0 0.0
2018-Jun-20 16:30S 32°46' W 071°31'0 0.0
2018-Jun-20 16:00S 32°46' W 071°31'0 0.0
2018-Jun-20 15:30S 32°46' W 071°31'0 0.0
2018-Jun-20 15:00S 32°46' W 071°31'0 0.0
2018-Jun-20 14:30S 32°46' W 071°31'0 0.0
2018-Jun-20 13:26S 32°46' W 071°31'0 0.0
2018-Jun-20 12:25S 32°46' W 071°31'0 0.0
2018-Jun-20 06:34S 32°47' W 071°31'0 0.1
2018-Jun-20 06:29S 32°46' W 071°31'0 0.0
2018-Jun-20 06:00S 32°46' W 071°31'0 0.0
2018-Jun-20 04:35S 32°47' W 071°31'0 0.0
2018-Jun-20 03:22S 32°46' W 071°31'0 0.0
2018-Jun-20 02:58S 32°46' W 071°31'0 0.0
2018-Jun-20 02:30S 32°46' W 071°31'0 0.0
2018-Jun-20 01:50S 32°46' W 071°31'0 0.0
2018-Jun-20 01:30S 32°46' W 071°31'0 0.0
2018-Jun-20 01:00S 32°46' W 071°31'0 0.0
2018-Jun-20 00:29S 32°46' W 071°31'0 0.0
2018-Jun-20 00:00S 32°46' W 071°31'0 0.0
2018-Jun-19 23:29S 32°46' W 071°31'0 0.0
2018-Jun-19 23:00S 32°46' W 071°31'0 0.0
2018-Jun-19 21:44S 32°46' W 071°31'0 0.0
2018-Jun-19 20:36S 32°46' W 071°31'0 0.1
2018-Jun-19 20:30S 32°46' W 071°31'0 0.0
2018-Jun-19 19:58S 32°46' W 071°31'0 0.0
2018-Jun-19 19:28S 32°46' W 071°31'0 0.0
2018-Jun-19 19:00S 32°46' W 071°31'0 0.0
2018-Jun-19 16:36S 32°46' W 071°31'0 0.0
2018-Jun-19 11:19S 32°46' W 071°31'2 0.0
2018-Jun-17 19:14S 32°46' W 071°30'0 0.0
2018-Jun-17 18:44S 32°46' W 071°30'0 0.0
2018-Jun-17 18:20S 32°46' W 071°30'0 0.1
2018-Jun-17 17:55S 32°46' W 071°30'0 0.1
2018-Jun-17 17:28S 32°46' W 071°30'0 0.2
2018-Jun-17 16:28S 32°46' W 071°30'1 0.3
2018-Jun-17 12:14S 32°47' W 071°31'0 0.0
2018-Jun-17 11:56S 32°47' W 071°31'0 0.0
2018-Jun-16 20:24S 32°46' W 071°31'0 0.0
2018-Jun-16 19:48S 32°46' W 071°31'0 0.0
2018-Jun-16 19:24S 32°46' W 071°31'0 0.0
2018-Jun-16 19:00S 32°46' W 071°31'0 0.0
2018-Jun-16 18:15S 32°46' W 071°31'0 0.0
2018-Jun-16 17:45S 32°46' W 071°31'0 0.0
2018-Jun-16 17:30S 32°46' W 071°31'0 0.0
2018-Jun-16 16:54S 32°46' W 071°31'0 0.0
2018-Jun-16 16:06S 32°46' W 071°31'0 0.0
2018-Jun-16 15:36S 32°46' W 071°31'0 0.1
2018-Jun-16 15:28S 32°46' W 071°31'3 5.5
2018-Jun-16 14:53S 32°49' W 071°34'4 9.6
2018-Jun-16 14:31S 32°52' W 071°35'5 9.5
2018-Jun-16 14:01S 32°57' W 071°36'5 9.7
2018-Jun-16 13:29S 33°02' W 071°37'  

Dump ship's entire track history